sensor_id;sensor_type;location;lat;lon;timestamp;pressure;altitude;pressure_sealevel;temperature;humidity
65557;BME280;52200;53.490;14.376;2022-09-09T00:01:51;100890.75;;;15.70;100.00
65557;BME280;52200;53.490;14.376;2022-09-09T00:04:36;100895.75;;;15.73;100.00
65557;BME280;52200;53.490;14.376;2022-09-09T00:09:48;100902.81;;;15.68;100.00
65557;BME280;52200;53.490;14.376;2022-09-09T00:12:31;100899.50;;;15.47;100.00
65557;BME280;52200;53.490;14.376;2022-09-09T00:15:18;100904.59;;;15.66;100.00
65557;BME280;52200;53.490;14.376;2022-09-09T00:18:07;100895.69;;;15.94;100.00
65557;BME280;52200;53.490;14.376;2022-09-09T00:21:00;100892.00;;;15.80;98.97
65557;BME280;52200;53.490;14.376;2022-09-09T00:23:34;100884.00;;;15.69;99.83
65557;BME280;52200;53.490;14.376;2022-09-09T00:26:16;100888.19;;;15.70;99.77
65557;BME280;52200;53.490;14.376;2022-09-09T00:31:28;100888.00;;;15.56;100.00
65557;BME280;52200;53.490;14.376;2022-09-09T00:34:00;100888.47;;;15.64;99.84
65557;BME280;52200;53.490;14.376;2022-09-09T00:36:31;100884.19;;;15.64;99.42
65557;BME280;52200;53.490;14.376;2022-09-09T00:39:00;100895.47;;;15.41;100.00
65557;BME280;52200;53.490;14.376;2022-09-09T00:41:53;100898.44;;;15.32;100.00
65557;BME280;52200;53.490;14.376;2022-09-09T00:44:31;100900.06;;;15.33;100.00
65557;BME280;52200;53.490;14.376;2022-09-09T00:52:35;100914.53;;;15.34;100.00
65557;BME280;52200;53.490;14.376;2022-09-09T00:57:38;100918.53;;;15.21;100.00
65557;BME280;52200;53.490;14.376;2022-09-09T01:08:00;100926.97;;;15.23;100.00
65557;BME280;52200;53.490;14.376;2022-09-09T01:10:42;100919.06;;;15.08;100.00
65557;BME280;52200;53.490;14.376;2022-09-09T01:13:33;100923.06;;;15.35;100.00
65557;BME280;52200;53.490;14.376;2022-09-09T01:16:01;100928.50;;;15.27;100.00
65557;BME280;52200;53.490;14.376;2022-09-09T01:18:37;100931.84;;;15.29;100.00
65557;BME280;52200;53.490;14.376;2022-09-09T01:26:59;100931.59;;;15.14;100.00
65557;BME280;52200;53.490;14.376;2022-09-09T01:29:26;100936.97;;;15.29;100.00
65557;BME280;52200;53.490;14.376;2022-09-09T01:34:24;100938.09;;;15.42;99.54
65557;BME280;52200;53.490;14.376;2022-09-09T01:39:23;100938.88;;;15.24;99.88
65557;BME280;52200;53.490;14.376;2022-09-09T01:41:48;100935.22;;;15.29;99.94
65557;BME280;52200;53.490;14.376;2022-09-09T01:44:14;100944.25;;;15.38;98.78
65557;BME280;52200;53.490;14.376;2022-09-09T01:46:39;100945.00;;;15.40;98.36
65557;BME280;52200;53.490;14.376;2022-09-09T01:49:07;100948.97;;;15.27;98.87
65557;BME280;52200;53.490;14.376;2022-09-09T01:51:34;100948.53;;;15.38;98.67
65557;BME280;52200;53.490;14.376;2022-09-09T01:54:01;100950.13;;;15.40;98.13
65557;BME280;52200;53.490;14.376;2022-09-09T02:00:08;100954.88;;;15.29;99.15
65557;BME280;52200;53.490;14.376;2022-09-09T02:07:38;100962.03;;;15.41;98.37
65557;BME280;52200;53.490;14.376;2022-09-09T02:10:10;100952.69;;;15.40;98.67
65557;BME280;52200;53.490;14.376;2022-09-09T02:12:41;100958.56;;;15.42;98.04
65557;BME280;52200;53.490;14.376;2022-09-09T02:15:17;100953.19;;;15.48;97.44
65557;BME280;52200;53.490;14.376;2022-09-09T02:17:49;100953.19;;;15.48;97.23
65557;BME280;52200;53.490;14.376;2022-09-09T02:20:15;100950.97;;;15.41;97.29
65557;BME280;52200;53.490;14.376;2022-09-09T02:22:47;100967.22;;;15.19;97.93
65557;BME280;52200;53.490;14.376;2022-09-09T02:25:18;100969.97;;;15.35;98.03
65557;BME280;52200;53.490;14.376;2022-09-09T02:27:46;100954.69;;;15.34;97.70
65557;BME280;52200;53.490;14.376;2022-09-09T02:30:13;100957.69;;;15.43;97.35
65557;BME280;52200;53.490;14.376;2022-09-09T02:32:42;100960.09;;;15.46;97.00
65557;BME280;52200;53.490;14.376;2022-09-09T02:35:12;100955.75;;;15.48;96.76
65557;BME280;52200;53.490;14.376;2022-09-09T02:37:39;100966.88;;;15.47;97.32
65557;BME280;52200;53.490;14.376;2022-09-09T02:40:09;100970.59;;;15.40;97.31
65557;BME280;52200;53.490;14.376;2022-09-09T02:42:46;100967.28;;;14.97;99.28
65557;BME280;52200;53.490;14.376;2022-09-09T02:45:15;100966.78;;;15.09;100.00
65557;BME280;52200;53.490;14.376;2022-09-09T02:47:59;100972.28;;;15.00;100.00
65557;BME280;52200;53.490;14.376;2022-09-09T02:50:34;100963.50;;;15.26;100.00
65557;BME280;52200;53.490;14.376;2022-09-09T02:53:08;100972.91;;;14.85;100.00
65557;BME280;52200;53.490;14.376;2022-09-09T02:56:04;100972.91;;;14.85;100.00
65557;BME280;52200;53.490;14.376;2022-09-09T02:58:31;100969.09;;;14.95;100.00
65557;BME280;52200;53.490;14.376;2022-09-09T03:00:57;100980.66;;;14.61;100.00
65557;BME280;52200;53.490;14.376;2022-09-09T03:03:23;100971.72;;;14.49;100.00
65557;BME280;52200;53.490;14.376;2022-09-09T03:05:48;100975.22;;;14.70;100.00
65557;BME280;52200;53.490;14.376;2022-09-09T03:08:15;100977.97;;;14.86;100.00
65557;BME280;52200;53.490;14.376;2022-09-09T03:10:40;100971.81;;;15.11;100.00
65557;BME280;52200;53.490;14.376;2022-09-09T03:13:06;100972.69;;;15.11;100.00
65557;BME280;52200;53.490;14.376;2022-09-09T03:15:33;100977.66;;;14.94;100.00
65557;BME280;52200;53.490;14.376;2022-09-09T03:17:59;100970.75;;;14.51;100.00
65557;BME280;52200;53.490;14.376;2022-09-09T03:20:27;100977.31;;;14.59;100.00
65557;BME280;52200;53.490;14.376;2022-09-09T03:22:54;100979.22;;;14.54;100.00
65557;BME280;52200;53.490;14.376;2022-09-09T03:25:20;100975.66;;;14.35;100.00
65557;BME280;52200;53.490;14.376;2022-09-09T03:27:46;100984.75;;;14.43;100.00
65557;BME280;52200;53.490;14.376;2022-09-09T03:30:11;100980.31;;;14.70;100.00
65557;BME280;52200;53.490;14.376;2022-09-09T03:32:37;100976.59;;;14.33;100.00
65557;BME280;52200;53.490;14.376;2022-09-09T03:35:03;100966.75;;;14.24;100.00
65557;BME280;52200;53.490;14.376;2022-09-09T03:37:28;100965.38;;;14.15;100.00
65557;BME280;52200;53.490;14.376;2022-09-09T03:39:54;100964.66;;;14.33;100.00
65557;BME280;52200;53.490;14.376;2022-09-09T03:42:20;100969.06;;;14.30;100.00
65557;BME280;52200;53.490;14.376;2022-09-09T03:44:46;100963.31;;;14.25;100.00
65557;BME280;52200;53.490;14.376;2022-09-09T03:47:17;100965.19;;;14.19;100.00
65557;BME280;52200;53.490;14.376;2022-09-09T03:49:43;100976.16;;;14.23;100.00
65557;BME280;52200;53.490;14.376;2022-09-09T03:52:09;100975.03;;;14.07;100.00
65557;BME280;52200;53.490;14.376;2022-09-09T03:54:35;100974.81;;;14.13;100.00
65557;BME280;52200;53.490;14.376;2022-09-09T03:57:01;100964.66;;;14.11;100.00
65557;BME280;52200;53.490;14.376;2022-09-09T03:59:26;100969.38;;;14.22;100.00
65557;BME280;52200;53.490;14.376;2022-09-09T04:01:52;100972.63;;;14.26;100.00
65557;BME280;52200;53.490;14.376;2022-09-09T04:04:18;100973.16;;;14.34;99.99
65557;BME280;52200;53.490;14.376;2022-09-09T04:06:45;100980.78;;;14.35;99.80
65557;BME280;52200;53.490;14.376;2022-09-09T04:09:11;100981.47;;;14.39;99.37
65557;BME280;52200;53.490;14.376;2022-09-09T04:11:36;100984.56;;;14.47;98.95
65557;BME280;52200;53.490;14.376;2022-09-09T04:14:03;100982.09;;;14.46;99.52
65557;BME280;52200;53.490;14.376;2022-09-09T04:16:31;100984.72;;;14.44;100.00
65557;BME280;52200;53.490;14.376;2022-09-09T04:18:57;100991.19;;;14.31;100.00
65557;BME280;52200;53.490;14.376;2022-09-09T04:21:23;100999.19;;;14.44;100.00
65557;BME280;52200;53.490;14.376;2022-09-09T04:23:48;100998.13;;;14.49;100.00
65557;BME280;52200;53.490;14.376;2022-09-09T04:26:14;101004.53;;;14.60;100.00
65557;BME280;52200;53.490;14.376;2022-09-09T04:28:40;100999.66;;;14.54;100.00
65557;BME280;52200;53.490;14.376;2022-09-09T04:31:08;101003.84;;;14.78;100.00
65557;BME280;52200;53.490;14.376;2022-09-09T04:33:35;101011.94;;;14.67;100.00
65557;BME280;52200;53.490;14.376;2022-09-09T04:36:00;101016.03;;;14.94;100.00
65557;BME280;52200;53.490;14.376;2022-09-09T04:38:26;101008.03;;;15.02;99.90
65557;BME280;52200;53.490;14.376;2022-09-09T04:40:52;101007.97;;;15.03;100.00
65557;BME280;52200;53.490;14.376;2022-09-09T04:43:19;101007.66;;;15.11;100.00
65557;BME280;52200;53.490;14.376;2022-09-09T04:45:50;101004.41;;;15.07;100.00
65557;BME280;52200;53.490;14.376;2022-09-09T04:48:16;101018.84;;;14.88;100.00
65557;BME280;52200;53.490;14.376;2022-09-09T04:50:42;101017.41;;;14.80;100.00
65557;BME280;52200;53.490;14.376;2022-09-09T04:53:08;101011.56;;;14.99;100.00
65557;BME280;52200;53.490;14.376;2022-09-09T04:55:34;101011.06;;;15.11;100.00
65557;BME280;52200;53.490;14.376;2022-09-09T04:58:08;101018.38;;;14.98;100.00
65557;BME280;52200;53.490;14.376;2022-09-09T05:00:37;101022.88;;;14.93;100.00
65557;BME280;52200;53.490;14.376;2022-09-09T05:03:06;101012.09;;;15.07;100.00
65557;BME280;52200;53.490;14.376;2022-09-09T05:05:34;101008.38;;;15.35;100.00
65557;BME280;52200;53.490;14.376;2022-09-09T05:08:07;101006.31;;;15.02;100.00
65557;BME280;52200;53.490;14.376;2022-09-09T05:10:36;101013.53;;;15.13;100.00
65557;BME280;52200;53.490;14.376;2022-09-09T05:13:01;101008.69;;;15.27;100.00
65557;BME280;52200;53.490;14.376;2022-09-09T05:15:27;101013.63;;;15.32;100.00
65557;BME280;52200;53.490;14.376;2022-09-09T05:17:57;101020.31;;;15.55;100.00
65557;BME280;52200;53.490;14.376;2022-09-09T05:20:23;101030.88;;;15.47;100.00
65557;BME280;52200;53.490;14.376;2022-09-09T05:22:53;101023.09;;;15.51;100.00
65557;BME280;52200;53.490;14.376;2022-09-09T05:25:18;101035.22;;;15.45;100.00
65557;BME280;52200;53.490;14.376;2022-09-09T05:27:44;101028.63;;;15.60;100.00
65557;BME280;52200;53.490;14.376;2022-09-09T05:30:10;101030.69;;;15.52;100.00
65557;BME280;52200;53.490;14.376;2022-09-09T05:32:36;101031.41;;;15.35;100.00
65557;BME280;52200;53.490;14.376;2022-09-09T05:35:02;101038.75;;;15.02;100.00
65557;BME280;52200;53.490;14.376;2022-09-09T05:37:27;101037.31;;;15.37;100.00
65557;BME280;52200;53.490;14.376;2022-09-09T05:39:54;101040.75;;;15.57;100.00
65557;BME280;52200;53.490;14.376;2022-09-09T05:42:20;101049.56;;;15.70;100.00
65557;BME280;52200;53.490;14.376;2022-09-09T05:44:45;101056.59;;;15.65;100.00
65557;BME280;52200;53.490;14.376;2022-09-09T05:47:11;101058.03;;;15.31;100.00
65557;BME280;52200;53.490;14.376;2022-09-09T05:49:36;101048.03;;;15.45;100.00
65557;BME280;52200;53.490;14.376;2022-09-09T05:52:02;101056.06;;;15.77;100.00
65557;BME280;52200;53.490;14.376;2022-09-09T05:54:29;101057.63;;;15.82;100.00
65557;BME280;52200;53.490;14.376;2022-09-09T05:56:55;101062.63;;;15.64;100.00
65557;BME280;52200;53.490;14.376;2022-09-09T05:59:21;101055.06;;;15.82;100.00
65557;BME280;52200;53.490;14.376;2022-09-09T06:01:48;101058.09;;;16.10;99.28
65557;BME280;52200;53.490;14.376;2022-09-09T06:04:14;101055.53;;;16.10;98.97
65557;BME280;52200;53.490;14.376;2022-09-09T06:06:39;101059.19;;;16.05;99.74
65557;BME280;52200;53.490;14.376;2022-09-09T06:09:08;101055.03;;;16.02;99.56
65557;BME280;52200;53.490;14.376;2022-09-09T06:11:39;101062.53;;;16.26;98.41
65557;BME280;52200;53.490;14.376;2022-09-09T06:14:05;101065.59;;;16.15;98.66
65557;BME280;52200;53.490;14.376;2022-09-09T06:16:31;101064.00;;;16.13;98.87
65557;BME280;52200;53.490;14.376;2022-09-09T06:19:00;101056.59;;;16.06;99.64
65557;BME280;52200;53.490;14.376;2022-09-09T06:21:31;101065.84;;;16.28;98.17
65557;BME280;52200;53.490;14.376;2022-09-09T06:24:04;101060.16;;;16.40;96.81
65557;BME280;52200;53.490;14.376;2022-09-09T06:26:32;101060.41;;;16.72;95.65
65557;BME280;52200;53.490;14.376;2022-09-09T06:28:59;101064.41;;;16.97;94.36
65557;BME280;52200;53.490;14.376;2022-09-09T06:31:26;101058.91;;;16.86;94.01
65557;BME280;52200;53.490;14.376;2022-09-09T06:33:56;101062.19;;;16.89;94.32
65557;BME280;52200;53.490;14.376;2022-09-09T06:36:27;101062.19;;;16.89;94.48
65557;BME280;52200;53.490;14.376;2022-09-09T06:38:53;101067.28;;;17.08;94.13
65557;BME280;52200;53.490;14.376;2022-09-09T06:41:20;101066.41;;;16.90;94.20
65557;BME280;52200;53.490;14.376;2022-09-09T06:43:46;101064.41;;;16.97;93.67
65557;BME280;52200;53.490;14.376;2022-09-09T06:46:23;101072.03;;;16.80;94.41
65557;BME280;52200;53.490;14.376;2022-09-09T06:48:49;101074.88;;;16.56;95.39
65557;BME280;52200;53.490;14.376;2022-09-09T06:51:20;101074.09;;;16.16;96.92
65557;BME280;52200;53.490;14.376;2022-09-09T06:53:53;101075.16;;;16.50;95.65
65557;BME280;52200;53.490;14.376;2022-09-09T06:56:33;101071.75;;;16.86;93.34
65557;BME280;52200;53.490;14.376;2022-09-09T06:59:02;101073.72;;;16.81;91.93
65557;BME280;52200;53.490;14.376;2022-09-09T07:01:31;101078.00;;;16.99;90.99
65557;BME280;52200;53.490;14.376;2022-09-09T07:03:58;101084.63;;;17.03;92.15
65557;BME280;52200;53.490;14.376;2022-09-09T07:06:32;101075.56;;;17.14;93.24
65557;BME280;52200;53.490;14.376;2022-09-09T07:09:00;101078.97;;;16.77;93.70
65557;BME280;52200;53.490;14.376;2022-09-09T07:11:28;101076.03;;;17.22;92.45
65557;BME280;52200;53.490;14.376;2022-09-09T07:13:54;101083.13;;;17.34;91.45
65557;BME280;52200;53.490;14.376;2022-09-09T07:16:21;101080.09;;;17.08;92.28
65557;BME280;52200;53.490;14.376;2022-09-09T07:18:48;101080.84;;;16.93;94.39
65557;BME280;52200;53.490;14.376;2022-09-09T07:21:16;101085.09;;;17.12;93.82
65557;BME280;52200;53.490;14.376;2022-09-09T07:23:41;101074.47;;;17.70;90.66
65557;BME280;52200;53.490;14.376;2022-09-09T07:26:12;101084.31;;;17.80;90.26
65557;BME280;52200;53.490;14.376;2022-09-09T07:28:39;101081.91;;;18.26;88.25
65557;BME280;52200;53.490;14.376;2022-09-09T07:31:06;101089.13;;;18.19;86.96
65557;BME280;52200;53.490;14.376;2022-09-09T07:33:34;101078.97;;;18.00;88.52
65557;BME280;52200;53.490;14.376;2022-09-09T07:38:28;101083.97;;;18.03;89.02
65557;BME280;52200;53.490;14.376;2022-09-09T07:41:03;101087.78;;;17.79;89.32
65557;BME280;52200;53.490;14.376;2022-09-09T07:43:28;101086.03;;;18.13;88.24
65557;BME280;52200;53.490;14.376;2022-09-09T07:45:58;101084.97;;;17.50;89.35
65557;BME280;52200;53.490;14.376;2022-09-09T07:48:23;101096.88;;;17.51;91.62
65557;BME280;52200;53.490;14.376;2022-09-09T07:50:50;101092.41;;;17.37;91.85
65557;BME280;52200;53.490;14.376;2022-09-09T07:53:16;101098.69;;;17.66;90.62
65557;BME280;52200;53.490;14.376;2022-09-09T07:55:41;101101.56;;;17.94;89.47
65557;BME280;52200;53.490;14.376;2022-09-09T07:58:07;101110.28;;;17.91;89.41
65557;BME280;52200;53.490;14.376;2022-09-09T08:00:32;101097.28;;;17.94;89.63
65557;BME280;52200;53.490;14.376;2022-09-09T08:02:58;101098.25;;;18.25;88.88
65557;BME280;52200;53.490;14.376;2022-09-09T08:05:27;101101.97;;;18.99;85.27
65557;BME280;52200;53.490;14.376;2022-09-09T08:07:53;101106.53;;;18.62;85.56
65557;BME280;52200;53.490;14.376;2022-09-09T08:10:18;101105.06;;;18.74;86.49
65557;BME280;52200;53.490;14.376;2022-09-09T08:12:44;101113.88;;;19.16;84.67
65557;BME280;52200;53.490;14.376;2022-09-09T08:15:10;101117.13;;;19.51;84.00
65557;BME280;52200;53.490;14.376;2022-09-09T08:17:36;101111.31;;;19.47;83.95
65557;BME280;52200;53.490;14.376;2022-09-09T08:20:03;101117.19;;;19.35;83.41
65557;BME280;52200;53.490;14.376;2022-09-09T08:22:31;101115.50;;;19.03;84.43
65557;BME280;52200;53.490;14.376;2022-09-09T08:24:57;101118.56;;;19.10;84.83
65557;BME280;52200;53.490;14.376;2022-09-09T08:27:23;101112.09;;;19.78;83.73
65557;BME280;52200;53.490;14.376;2022-09-09T08:29:49;101120.09;;;19.28;83.67
65557;BME280;52200;53.490;14.376;2022-09-09T08:32:14;101114.84;;;19.30;83.01
65557;BME280;52200;53.490;14.376;2022-09-09T08:34:41;101122.94;;;19.69;83.42
65557;BME280;52200;53.490;14.376;2022-09-09T08:37:07;101123.75;;;19.24;83.90
65557;BME280;52200;53.490;14.376;2022-09-09T08:39:32;101119.28;;;19.87;81.47
65557;BME280;52200;53.490;14.376;2022-09-09T08:50:42;101127.09;;;20.29;79.17
65557;BME280;52200;53.490;14.376;2022-09-09T08:55:41;101126.59;;;19.50;83.69
65557;BME280;52200;53.490;14.376;2022-09-09T08:58:16;101124.72;;;19.07;85.31
65557;BME280;52200;53.490;14.376;2022-09-09T09:03:40;101133.59;;;19.48;84.22
65557;BME280;52200;53.490;14.376;2022-09-09T09:06:24;101132.28;;;19.41;83.46
65557;BME280;52200;53.490;14.376;2022-09-09T09:11:47;101130.41;;;19.28;84.41
65557;BME280;52200;53.490;14.376;2022-09-09T09:14:28;101123.03;;;19.22;86.04
65557;BME280;52200;53.490;14.376;2022-09-09T09:16:58;101125.19;;;19.14;87.09
65557;BME280;52200;53.490;14.376;2022-09-09T09:19:25;101113.84;;;19.32;84.54
65557;BME280;52200;53.490;14.376;2022-09-09T09:22:21;101119.44;;;19.70;84.67
65557;BME280;52200;53.490;14.376;2022-09-09T09:27:35;101117.97;;;19.80;84.83
65557;BME280;52200;53.490;14.376;2022-09-09T09:30:21;101118.34;;;20.32;84.08
65557;BME280;52200;53.490;14.376;2022-09-09T09:33:05;101130.72;;;19.83;82.76
65557;BME280;52200;53.490;14.376;2022-09-09T09:35:34;101126.28;;;20.00;87.54
65557;BME280;52200;53.490;14.376;2022-09-09T09:37:59;101115.28;;;20.39;81.22
65557;BME280;52200;53.490;14.376;2022-09-09T09:40:26;101124.63;;;20.13;85.04
65557;BME280;52200;53.490;14.376;2022-09-09T09:42:58;101131.81;;;20.22;83.13
65557;BME280;52200;53.490;14.376;2022-09-09T09:48:05;101129.88;;;20.68;80.04
65557;BME280;52200;53.490;14.376;2022-09-09T09:50:33;101120.44;;;20.39;81.62
65557;BME280;52200;53.490;14.376;2022-09-09T09:53:04;101131.75;;;20.66;81.83
65557;BME280;52200;53.490;14.376;2022-09-09T09:55:31;101123.72;;;20.98;81.67
65557;BME280;52200;53.490;14.376;2022-09-09T09:58:06;101119.00;;;21.17;80.28
65557;BME280;52200;53.490;14.376;2022-09-09T10:00:32;101115.03;;;20.99;78.18
65557;BME280;52200;53.490;14.376;2022-09-09T10:03:00;101123.00;;;20.96;79.43
65557;BME280;52200;53.490;14.376;2022-09-09T10:05:28;101118.31;;;20.88;81.11
65557;BME280;52200;53.490;14.376;2022-09-09T10:08:12;101121.19;;;21.23;80.12
65557;BME280;52200;53.490;14.376;2022-09-09T10:14:10;101113.69;;;21.06;76.66
65557;BME280;52200;53.490;14.376;2022-09-09T10:22:39;101114.06;;;20.45;78.81
65557;BME280;52200;53.490;14.376;2022-09-09T10:25:28;101106.06;;;21.04;77.98
65557;BME280;52200;53.490;14.376;2022-09-09T10:31:08;101122.84;;;21.24;77.66
65557;BME280;52200;53.490;14.376;2022-09-09T10:33:50;101112.38;;;21.66;74.82
65557;BME280;52200;53.490;14.376;2022-09-09T10:36:22;101127.94;;;21.39;76.87
65557;BME280;52200;53.490;14.376;2022-09-09T10:39:04;101127.38;;;21.21;75.69
65557;BME280;52200;53.490;14.376;2022-09-09T10:42:02;101126.56;;;21.20;77.50
65557;BME280;52200;53.490;14.376;2022-09-09T10:53:08;101127.81;;;21.40;79.29
65557;BME280;52200;53.490;14.376;2022-09-09T10:55:48;101132.94;;;21.02;77.05
65557;BME280;52200;53.490;14.376;2022-09-09T10:58:56;101128.81;;;21.78;76.47
65557;BME280;52200;53.490;14.376;2022-09-09T11:01:27;101123.28;;;21.31;75.74
65557;BME280;52200;53.490;14.376;2022-09-09T11:03:59;101123.28;;;21.31;76.46
65557;BME280;52200;53.490;14.376;2022-09-09T11:06:48;101126.78;;;21.30;75.81
65557;BME280;52200;53.490;14.376;2022-09-09T11:09:23;101131.78;;;21.46;76.89
65557;BME280;52200;53.490;14.376;2022-09-09T11:11:53;101128.97;;;21.36;75.79
65557;BME280;52200;53.490;14.376;2022-09-09T11:15:20;101130.63;;;20.97;76.50
65557;BME280;52200;53.490;14.376;2022-09-09T11:17:28;101136.25;;;21.04;76.26
65557;BME280;52200;53.490;14.376;2022-09-09T11:19:58;101135.69;;;21.26;75.71
65557;BME280;52200;53.490;14.376;2022-09-09T11:22:35;101135.28;;;21.32;75.51
65557;BME280;52200;53.490;14.376;2022-09-09T11:25:36;101136.34;;;21.81;75.36
65557;BME280;52200;53.490;14.376;2022-09-09T11:28:18;101128.94;;;22.27;75.12
65557;BME280;52200;53.490;14.376;2022-09-09T11:36:33;101132.03;;;23.17;71.13
65557;BME280;52200;53.490;14.376;2022-09-09T11:42:26;101128.84;;;22.90;72.80
65557;BME280;52200;53.490;14.376;2022-09-09T11:44:52;101126.03;;;22.93;71.01
65557;BME280;52200;53.490;14.376;2022-09-09T11:47:27;101132.69;;;23.08;70.75
65557;BME280;52200;53.490;14.376;2022-09-09T11:52:42;101126.50;;;22.62;70.02
65557;BME280;52200;53.490;14.376;2022-09-09T11:55:33;101120.47;;;22.62;71.36
65557;BME280;52200;53.490;14.376;2022-09-09T12:00:42;101124.59;;;22.89;69.64
65557;BME280;52200;53.490;14.376;2022-09-09T12:06:16;101120.66;;;23.07;68.49
65557;BME280;52200;53.490;14.376;2022-09-09T12:08:45;101119.09;;;22.69;69.79
65557;BME280;52200;53.490;14.376;2022-09-09T12:11:11;101119.47;;;22.51;69.68
65557;BME280;52200;53.490;14.376;2022-09-09T12:13:37;101125.09;;;22.94;70.27
65557;BME280;52200;53.490;14.376;2022-09-09T12:16:02;101113.69;;;22.35;69.38
65557;BME280;52200;53.490;14.376;2022-09-09T12:18:38;101118.16;;;22.70;70.43
65557;BME280;52200;53.490;14.376;2022-09-09T12:24:10;101125.13;;;23.05;66.86
65557;BME280;52200;53.490;14.376;2022-09-09T12:31:59;101117.75;;;23.70;63.41
65557;BME280;52200;53.490;14.376;2022-09-09T12:37:05;101116.56;;;23.86;65.02
65557;BME280;52200;53.490;14.376;2022-09-09T12:39:35;101114.25;;;23.94;63.71
65557;BME280;52200;53.490;14.376;2022-09-09T12:42:03;101114.91;;;23.85;63.48
65557;BME280;52200;53.490;14.376;2022-09-09T12:44:30;101110.66;;;24.18;61.97
65557;BME280;52200;53.490;14.376;2022-09-09T12:47:00;101111.16;;;24.11;60.88
65557;BME280;52200;53.490;14.376;2022-09-09T12:49:33;101116.59;;;24.08;60.83
65557;BME280;52200;53.490;14.376;2022-09-09T12:52:02;101103.63;;;24.08;61.33
65557;BME280;52200;53.490;14.376;2022-09-09T12:54:32;101107.59;;;23.67;61.84
65557;BME280;52200;53.490;14.376;2022-09-09T12:56:58;101096.75;;;23.50;64.08
65557;BME280;52200;53.490;14.376;2022-09-09T12:59:26;101083.19;;;23.36;63.68
65557;BME280;52200;53.490;14.376;2022-09-09T13:01:57;101080.59;;;23.70;63.54
65557;BME280;52200;53.490;14.376;2022-09-09T13:04:23;101084.59;;;23.85;62.93
65557;BME280;52200;53.490;14.376;2022-09-09T13:06:48;101081.38;;;22.89;63.32
65557;BME280;52200;53.490;14.376;2022-09-09T13:09:14;101088.66;;;22.84;64.85
65557;BME280;52200;53.490;14.376;2022-09-09T13:11:50;101085.22;;;22.48;67.29
65557;BME280;52200;53.490;14.376;2022-09-09T13:14:29;101082.47;;;22.25;67.21
65557;BME280;52200;53.490;14.376;2022-09-09T13:17:03;101079.41;;;22.07;67.46
65557;BME280;52200;53.490;14.376;2022-09-09T13:19:38;101075.28;;;22.04;68.41
65557;BME280;52200;53.490;14.376;2022-09-09T13:22:30;101081.06;;;22.08;68.45
65557;BME280;52200;53.490;14.376;2022-09-09T13:25:19;101077.13;;;22.02;66.89
65557;BME280;52200;53.490;14.376;2022-09-09T13:28:03;101075.44;;;21.77;70.05
65557;BME280;52200;53.490;14.376;2022-09-09T13:30:34;101065.34;;;21.98;69.14
65557;BME280;52200;53.490;14.376;2022-09-09T13:35:35;101064.00;;;22.30;66.70
65557;BME280;52200;53.490;14.376;2022-09-09T13:38:14;101066.97;;;22.74;66.13
65557;BME280;52200;53.490;14.376;2022-09-09T13:40:40;101065.47;;;22.82;67.23
65557;BME280;52200;53.490;14.376;2022-09-09T13:43:14;101063.31;;;22.52;67.23
65557;BME280;52200;53.490;14.376;2022-09-09T13:46:34;101069.09;;;22.80;66.78
65557;BME280;52200;53.490;14.376;2022-09-09T13:48:40;101060.03;;;22.85;65.91
65557;BME280;52200;53.490;14.376;2022-09-09T13:53:54;101068.75;;;22.49;68.28
65557;BME280;52200;53.490;14.376;2022-09-09T13:56:20;101069.84;;;22.58;67.69
65557;BME280;52200;53.490;14.376;2022-09-09T13:58:45;101054.94;;;22.24;67.07
65557;BME280;52200;53.490;14.376;2022-09-09T14:01:13;101058.22;;;22.02;67.87
65557;BME280;52200;53.490;14.376;2022-09-09T14:03:38;101057.59;;;22.22;69.37
65557;BME280;52200;53.490;14.376;2022-09-09T14:06:03;101052.16;;;22.14;69.57
65557;BME280;52200;53.490;14.376;2022-09-09T14:08:29;101052.41;;;22.35;67.82
65557;BME280;52200;53.490;14.376;2022-09-09T14:11:03;101064.44;;;22.61;67.88
65557;BME280;52200;53.490;14.376;2022-09-09T14:13:28;101053.91;;;22.86;66.11
65557;BME280;52200;53.490;14.376;2022-09-09T14:15:54;101049.00;;;22.59;66.97
65557;BME280;52200;53.490;14.376;2022-09-09T14:18:19;101044.66;;;22.60;67.15
65557;BME280;52200;53.490;14.376;2022-09-09T14:20:45;101042.84;;;22.49;67.87
65557;BME280;52200;53.490;14.376;2022-09-09T14:23:11;101037.75;;;22.23;67.63
65557;BME280;52200;53.490;14.376;2022-09-09T14:25:40;101036.19;;;22.20;67.68
65557;BME280;52200;53.490;14.376;2022-09-09T14:28:08;101037.31;;;22.29;67.93
65557;BME280;52200;53.490;14.376;2022-09-09T14:30:34;101038.59;;;22.72;67.58
65557;BME280;52200;53.490;14.376;2022-09-09T14:32:59;101040.50;;;22.81;67.86
65557;BME280;52200;53.490;14.376;2022-09-09T14:35:25;101035.56;;;22.90;66.93
65557;BME280;52200;53.490;14.376;2022-09-09T14:37:50;101039.16;;;22.27;67.13
65557;BME280;52200;53.490;14.376;2022-09-09T14:40:17;101032.69;;;22.21;67.67
65557;BME280;52200;53.490;14.376;2022-09-09T14:42:42;101028.69;;;22.04;69.39
65557;BME280;52200;53.490;14.376;2022-09-09T14:45:08;101025.06;;;22.07;68.81
65557;BME280;52200;53.490;14.376;2022-09-09T14:47:34;101028.97;;;22.37;68.04
65557;BME280;52200;53.490;14.376;2022-09-09T14:50:00;101028.38;;;22.46;66.99
65557;BME280;52200;53.490;14.376;2022-09-09T14:52:26;101028.34;;;22.82;66.71
65557;BME280;52200;53.490;14.376;2022-09-09T14:54:51;101040.78;;;23.12;65.11